sensor_id;sensor_type;location;lat;lon;timestamp;pressure;altitude;pressure_sealevel;temperature;humidity
47815;BME280;33579;50.058;18.130;2023-04-27T00:00:03;99450.38;;;5.33;94.85
47815;BME280;33579;50.058;18.130;2023-04-27T00:01:13;99446.56;;;5.39;94.82
47815;BME280;33579;50.058;18.130;2023-04-27T00:02:15;99445.72;;;5.39;95.24
47815;BME280;33579;50.058;18.130;2023-04-27T00:03:17;99443.19;;;5.37;95.18
47815;BME280;33579;50.058;18.130;2023-04-27T00:04:19;99447.75;;;5.33;95.41
47815;BME280;33579;50.058;18.130;2023-04-27T00:05:21;99446.19;;;5.31;95.71
47815;BME280;33579;50.058;18.130;2023-04-27T00:06:23;99443.88;;;5.26;96.04
47815;BME280;33579;50.058;18.130;2023-04-27T00:07:25;99447.31;;;5.27;96.15
47815;BME280;33579;50.058;18.130;2023-04-27T00:08:26;99449.38;;;5.22;96.05
47815;BME280;33579;50.058;18.130;2023-04-27T00:09:28;99445.44;;;5.14;96.04
47815;BME280;33579;50.058;18.130;2023-04-27T00:10:30;99446.44;;;5.12;96.33
47815;BME280;33579;50.058;18.130;2023-04-27T00:11:31;99450.09;;;5.09;96.22
47815;BME280;33579;50.058;18.130;2023-04-27T00:12:33;99452.13;;;5.04;96.22
47815;BME280;33579;50.058;18.130;2023-04-27T00:13:35;99447.97;;;5.01;96.48
47815;BME280;33579;50.058;18.130;2023-04-27T00:14:37;99446.28;;;5.00;96.56
47815;BME280;33579;50.058;18.130;2023-04-27T00:15:38;99452.25;;;5.02;96.58
47815;BME280;33579;50.058;18.130;2023-04-27T00:16:40;99453.91;;;5.03;96.48
47815;BME280;33579;50.058;18.130;2023-04-27T00:17:42;99454.19;;;4.99;96.63
47815;BME280;33579;50.058;18.130;2023-04-27T00:18:43;99449.63;;;5.02;96.66
47815;BME280;33579;50.058;18.130;2023-04-27T00:19:45;99452.25;;;5.17;95.95
47815;BME280;33579;50.058;18.130;2023-04-27T00:20:47;99449.53;;;5.18;95.74
47815;BME280;33579;50.058;18.130;2023-04-27T00:21:48;99448.97;;;5.13;95.79
47815;BME280;33579;50.058;18.130;2023-04-27T00:22:50;99449.06;;;5.12;95.68
47815;BME280;33579;50.058;18.130;2023-04-27T00:23:53;99454.84;;;5.02;95.97
47815;BME280;33579;50.058;18.130;2023-04-27T00:24:54;99450.00;;;4.96;96.42
47815;BME280;33579;50.058;18.130;2023-04-27T00:25:56;99452.88;;;4.91;96.66
47815;BME280;33579;50.058;18.130;2023-04-27T00:26:58;99448.59;;;4.90;96.68
47815;BME280;33579;50.058;18.130;2023-04-27T00:27:59;99449.44;;;4.91;96.52
47815;BME280;33579;50.058;18.130;2023-04-27T00:29:01;99447.09;;;4.86;96.78
47815;BME280;33579;50.058;18.130;2023-04-27T00:30:03;99459.59;;;4.96;96.46
47815;BME280;33579;50.058;18.130;2023-04-27T00:31:06;99456.88;;;4.97;96.22
47815;BME280;33579;50.058;18.130;2023-04-27T00:32:10;99460.41;;;4.96;96.49
47815;BME280;33579;50.058;18.130;2023-04-27T00:33:12;99447.50;;;4.95;96.26
47815;BME280;33579;50.058;18.130;2023-04-27T00:34:14;99453.72;;;4.92;96.69
47815;BME280;33579;50.058;18.130;2023-04-27T00:35:16;99446.81;;;4.91;96.87
47815;BME280;33579;50.058;18.130;2023-04-27T00:36:17;99461.28;;;4.97;96.50
47815;BME280;33579;50.058;18.130;2023-04-27T00:37:21;99453.59;;;4.93;96.35
47815;BME280;33579;50.058;18.130;2023-04-27T00:38:23;99451.78;;;4.96;96.53
47815;BME280;33579;50.058;18.130;2023-04-27T00:39:25;99449.25;;;4.94;96.68
47815;BME280;33579;50.058;18.130;2023-04-27T00:40:26;99450.91;;;4.95;96.50
47815;BME280;33579;50.058;18.130;2023-04-27T00:41:28;99450.66;;;5.00;96.23
47815;BME280;33579;50.058;18.130;2023-04-27T00:42:30;99453.34;;;4.98;96.31
47815;BME280;33579;50.058;18.130;2023-04-27T00:43:32;99449.91;;;4.98;96.05
47815;BME280;33579;50.058;18.130;2023-04-27T00:44:41;99454.38;;;4.96;96.33
47815;BME280;33579;50.058;18.130;2023-04-27T00:45:43;99452.72;;;4.95;96.43
47815;BME280;33579;50.058;18.130;2023-04-27T00:46:46;99452.78;;;4.93;96.62
47815;BME280;33579;50.058;18.130;2023-04-27T00:47:48;99453.59;;;4.93;96.62
47815;BME280;33579;50.058;18.130;2023-04-27T00:48:51;99454.91;;;4.86;97.13
47815;BME280;33579;50.058;18.130;2023-04-27T00:49:53;99448.03;;;4.85;97.14
47815;BME280;33579;50.058;18.130;2023-04-27T00:50:54;99450.63;;;4.85;97.39
47815;BME280;33579;50.058;18.130;2023-04-27T00:51:56;99453.06;;;4.88;97.50
47815;BME280;33579;50.058;18.130;2023-04-27T00:52:58;99455.19;;;4.96;97.16
47815;BME280;33579;50.058;18.130;2023-04-27T00:54:00;99453.34;;;4.98;97.30
47815;BME280;33579;50.058;18.130;2023-04-27T00:55:04;99456.06;;;4.97;97.23
47815;BME280;33579;50.058;18.130;2023-04-27T00:56:06;99449.31;;;4.92;97.13
47815;BME280;33579;50.058;18.130;2023-04-27T00:57:08;99450.19;;;4.93;97.19
47815;BME280;33579;50.058;18.130;2023-04-27T00:58:10;99449.25;;;4.94;97.44
47815;BME280;33579;50.058;18.130;2023-04-27T00:59:11;99450.72;;;4.98;97.50
47815;BME280;33579;50.058;18.130;2023-04-27T01:00:13;99453.34;;;4.98;97.38
47815;BME280;33579;50.058;18.130;2023-04-27T01:01:15;99450.09;;;4.95;97.23
47815;BME280;33579;50.058;18.130;2023-04-27T01:02:17;99447.38;;;4.96;97.19
47815;BME280;33579;50.058;18.130;2023-04-27T01:03:19;99445.63;;;4.97;97.35
47815;BME280;33579;50.058;18.130;2023-04-27T01:04:21;99447.66;;;4.91;97.44
47815;BME280;33579;50.058;18.130;2023-04-27T01:05:25;99450.09;;;4.95;97.52
47815;BME280;33579;50.058;18.130;2023-04-27T01:06:26;99450.84;;;4.97;97.36
47815;BME280;33579;50.058;18.130;2023-04-27T01:07:28;99449.16;;;4.96;97.07
47815;BME280;33579;50.058;18.130;2023-04-27T01:08:31;99451.78;;;4.96;97.04
47815;BME280;33579;50.058;18.130;2023-04-27T01:09:36;99450.38;;;4.90;97.34
47815;BME280;33579;50.058;18.130;2023-04-27T01:10:37;99453.25;;;4.85;97.84
47815;BME280;33579;50.058;18.130;2023-04-27T01:11:39;99449.13;;;4.81;97.97
47815;BME280;33579;50.058;18.130;2023-04-27T01:12:41;99457.72;;;4.83;97.83
47815;BME280;33579;50.058;18.130;2023-04-27T01:13:43;99455.09;;;4.83;97.92
47815;BME280;33579;50.058;18.130;2023-04-27T01:14:45;99458.47;;;4.85;97.85
47815;BME280;33579;50.058;18.130;2023-04-27T01:15:46;99454.06;;;4.86;97.36
47815;BME280;33579;50.058;18.130;2023-04-27T01:16:48;99454.25;;;4.83;97.50
47815;BME280;33579;50.058;18.130;2023-04-27T01:17:56;99455.09;;;4.83;97.34
47815;BME280;33579;50.058;18.130;2023-04-27T01:18:59;99451.38;;;4.87;97.40
47815;BME280;33579;50.058;18.130;2023-04-27T01:20:01;99464.97;;;4.92;97.38
47815;BME280;33579;50.058;18.130;2023-04-27T01:21:03;99460.69;;;4.91;97.35
47815;BME280;33579;50.058;18.130;2023-04-27T01:22:05;99459.47;;;4.97;96.94
47815;BME280;33579;50.058;18.130;2023-04-27T01:23:07;99456.59;;;4.87;96.91
47815;BME280;33579;50.058;18.130;2023-04-27T01:24:09;99459.16;;;4.58;98.11
47815;BME280;33579;50.058;18.130;2023-04-27T01:25:11;99462.53;;;4.44;99.35
47815;BME280;33579;50.058;18.130;2023-04-27T01:26:12;99462.34;;;4.47;99.53
47815;BME280;33579;50.058;18.130;2023-04-27T01:27:15;99461.88;;;4.41;100.00
47815;BME280;33579;50.058;18.130;2023-04-27T01:28:17;99457.31;;;4.44;100.00
47815;BME280;33579;50.058;18.130;2023-04-27T01:29:19;99454.91;;;4.41;100.00
47815;BME280;33579;50.058;18.130;2023-04-27T01:30:20;99453.22;;;4.40;100.00
47815;BME280;33579;50.058;18.130;2023-04-27T01:31:22;99453.88;;;4.44;100.00
47815;BME280;33579;50.058;18.130;2023-04-27T01:32:24;99456.97;;;4.50;99.83
47815;BME280;33579;50.058;18.130;2023-04-27T01:33:25;99455.22;;;4.51;99.66
47815;BME280;33579;50.058;18.130;2023-04-27T01:34:27;99462.00;;;4.54;99.59
47815;BME280;33579;50.058;18.130;2023-04-27T01:35:29;99459.22;;;4.57;99.32
47815;BME280;33579;50.058;18.130;2023-04-27T01:36:33;99457.47;;;4.57;99.33
47815;BME280;33579;50.058;18.130;2023-04-27T01:37:35;99454.94;;;4.56;99.49
47815;BME280;33579;50.058;18.130;2023-04-27T01:38:36;99455.88;;;4.55;99.48
47815;BME280;33579;50.058;18.130;2023-04-27T01:39:38;99454.47;;;4.49;99.75
47815;BME280;33579;50.058;18.130;2023-04-27T01:40:41;99461.44;;;4.48;99.85
47815;BME280;33579;50.058;18.130;2023-04-27T01:41:43;99457.16;;;4.47;99.96
47815;BME280;33579;50.058;18.130;2023-04-27T01:42:45;99458.81;;;4.48;100.00
47815;BME280;33579;50.058;18.130;2023-04-27T01:43:46;99456.88;;;4.52;100.00
47815;BME280;33579;50.058;18.130;2023-04-27T01:44:48;99452.81;;;4.62;99.72
47815;BME280;33579;50.058;18.130;2023-04-27T01:45:50;99457.09;;;4.63;99.52
47815;BME280;33579;50.058;18.130;2023-04-27T01:46:51;99455.88;;;4.55;99.81
47815;BME280;33579;50.058;18.130;2023-04-27T01:47:53;99459.41;;;4.54;100.00
47815;BME280;33579;50.058;18.130;2023-04-27T01:48:55;99456.69;;;4.55;100.00
47815;BME280;33579;50.058;18.130;2023-04-27T01:49:56;99460.91;;;4.58;100.00
47815;BME280;33579;50.058;18.130;2023-04-27T01:50:58;99457.97;;;4.64;99.50
47815;BME280;33579;50.058;18.130;2023-04-27T01:52:00;99468.19;;;4.67;99.41
47815;BME280;33579;50.058;18.130;2023-04-27T01:53:02;99467.25;;;4.68;99.21
47815;BME280;33579;50.058;18.130;2023-04-27T01:54:04;99469.94;;;4.67;99.27
47815;BME280;33579;50.058;18.130;2023-04-27T01:55:06;99466.34;;;4.69;99.48
47815;BME280;33579;50.058;18.130;2023-04-27T01:56:07;99458.78;;;4.64;99.40
47815;BME280;33579;50.058;18.130;2023-04-27T01:57:09;99463.66;;;4.71;99.25
47815;BME280;33579;50.058;18.130;2023-04-27T01:58:11;99464.41;;;4.73;99.05
47815;BME280;33579;50.058;18.130;2023-04-27T01:59:14;99464.06;;;4.63;99.07
47815;BME280;33579;50.058;18.130;2023-04-27T02:00:16;99463.31;;;4.61;99.26
47815;BME280;33579;50.058;18.130;2023-04-27T02:01:26;99465.66;;;4.66;98.98
47815;BME280;33579;50.058;18.130;2023-04-27T02:02:27;99469.28;;;4.63;98.80
47815;BME280;33579;50.058;18.130;2023-04-27T02:03:29;99464.84;;;4.65;98.82
47815;BME280;33579;50.058;18.130;2023-04-27T02:04:31;99468.38;;;4.64;98.67
47815;BME280;33579;50.058;18.130;2023-04-27T02:05:33;99468.72;;;4.58;98.54
47815;BME280;33579;50.058;18.130;2023-04-27T02:06:35;99464.50;;;4.55;98.39
47815;BME280;33579;50.058;18.130;2023-04-27T02:07:36;99462.84;;;4.54;98.46
47815;BME280;33579;50.058;18.130;2023-04-27T02:08:38;99470.34;;;4.44;98.78
47815;BME280;33579;50.058;18.130;2023-04-27T02:09:42;99460.78;;;4.45;99.18
47815;BME280;33579;50.058;18.130;2023-04-27T02:10:46;99462.09;;;4.52;98.60
47815;BME280;33579;50.058;18.130;2023-04-27T02:11:47;99468.06;;;4.54;98.33
47815;BME280;33579;50.058;18.130;2023-04-27T02:12:49;99463.03;;;4.51;98.44
47815;BME280;33579;50.058;18.130;2023-04-27T02:13:50;99465.06;;;4.46;98.71
47815;BME280;33579;50.058;18.130;2023-04-27T02:14:52;99459.84;;;4.46;98.73
47815;BME280;33579;50.058;18.130;2023-04-27T02:15:54;99463.38;;;4.45;98.99
47815;BME280;33579;50.058;18.130;2023-04-27T02:16:56;99467.75;;;4.44;99.02
47815;BME280;33579;50.058;18.130;2023-04-27T02:17:57;99468.59;;;4.45;99.23
47815;BME280;33579;50.058;18.130;2023-04-27T02:18:59;99466.00;;;4.45;99.33
47815;BME280;33579;50.058;18.130;2023-04-27T02:20:01;99474.16;;;4.39;99.40
47815;BME280;33579;50.058;18.130;2023-04-27T02:21:07;99462.88;;;4.38;99.33
47815;BME280;33579;50.058;18.130;2023-04-27T02:22:10;99469.13;;;4.35;99.91
47815;BME280;33579;50.058;18.130;2023-04-27T02:23:12;99470.88;;;4.35;99.87
47815;BME280;33579;50.058;18.130;2023-04-27T02:24:16;99462.88;;;4.38;99.78
47815;BME280;33579;50.058;18.130;2023-04-27T02:25:19;99466.16;;;4.42;99.32
47815;BME280;33579;50.058;18.130;2023-04-27T02:26:21;99470.69;;;4.38;99.66
47815;BME280;33579;50.058;18.130;2023-04-27T02:27:23;99462.06;;;4.38;100.00
47815;BME280;33579;50.058;18.130;2023-04-27T02:28:25;99468.09;;;4.38;99.94
47815;BME280;33579;50.058;18.130;2023-04-27T02:29:30;99467.94;;;4.41;99.91
47815;BME280;33579;50.058;18.130;2023-04-27T02:30:32;99468.75;;;4.42;99.58
47815;BME280;33579;50.058;18.130;2023-04-27T02:31:34;99469.50;;;4.44;99.62
47815;BME280;33579;50.058;18.130;2023-04-27T02:32:36;99468.25;;;4.51;99.56
47815;BME280;33579;50.058;18.130;2023-04-27T02:33:38;99470.34;;;4.44;99.75
47815;BME280;33579;50.058;18.130;2023-04-27T02:34:40;99465.69;;;4.49;99.83
47815;BME280;33579;50.058;18.130;2023-04-27T02:35:42;99472.25;;;4.57;99.65
47815;BME280;33579;50.058;18.130;2023-04-27T02:36:44;99476.22;;;4.48;100.00
47815;BME280;33579;50.058;18.130;2023-04-27T02:37:45;99466.25;;;4.40;100.00
47815;BME280;33579;50.058;18.130;2023-04-27T02:38:48;99471.63;;;4.37;100.00
47815;BME280;33579;50.058;18.130;2023-04-27T02:39:50;99466.91;;;4.44;100.00
47815;BME280;33579;50.058;18.130;2023-04-27T02:40:53;99462.28;;;4.49;99.90
47815;BME280;33579;50.058;18.130;2023-04-27T02:41:54;99470.91;;;4.49;99.84
47815;BME280;33579;50.058;18.130;2023-04-27T02:42:56;99472.78;;;4.47;100.00
47815;BME280;33579;50.058;18.130;2023-04-27T02:43:58;99467.75;;;4.44;100.00
47815;BME280;33579;50.058;18.130;2023-04-27T02:44:59;99467.25;;;4.38;100.00
47815;BME280;33579;50.058;18.130;2023-04-27T02:46:02;99470.56;;;4.25;100.00
47815;BME280;33579;50.058;18.130;2023-04-27T02:47:04;99469.63;;;4.26;100.00
47815;BME280;33579;50.058;18.130;2023-04-27T02:48:06;99465.91;;;4.30;100.00
47815;BME280;33579;50.058;18.130;2023-04-27T02:49:08;99469.38;;;4.31;100.00
47815;BME280;33579;50.058;18.130;2023-04-27T02:50:09;99466.84;;;4.29;100.00
47815;BME280;33579;50.058;18.130;2023-04-27T02:51:11;99468.53;;;4.30;100.00
47815;BME280;33579;50.058;18.130;2023-04-27T02:52:13;99467.53;;;4.33;100.00
47815;BME280;33579;50.058;18.130;2023-04-27T02:53:14;99476.25;;;4.32;100.00
47815;BME280;33579;50.058;18.130;2023-04-27T02:54:16;99464.34;;;4.28;100.00
47815;BME280;33579;50.058;18.130;2023-04-27T02:55:18;99473.72;;;4.30;100.00
47815;BME280;33579;50.058;18.130;2023-04-27T02:56:20;99477.25;;;4.29;100.00
47815;BME280;33579;50.058;18.130;2023-04-27T02:57:24;99472.81;;;4.31;100.00
47815;BME280;33579;50.058;18.130;2023-04-27T02:58:25;99470.88;;;4.35;100.00
47815;BME280;33579;50.058;18.130;2023-04-27T02:59:27;99469.13;;;4.35;100.00
47815;BME280;33579;50.058;18.130;2023-04-27T03:00:29;99474.50;;;4.32;100.00
47815;BME280;33579;50.058;18.130;2023-04-27T03:01:31;99472.72;;;4.33;100.00
47815;BME280;33579;50.058;18.130;2023-04-27T03:02:32;99473.47;;;4.35;100.00
47815;BME280;33579;50.058;18.130;2023-04-27T03:03:34;99471.81;;;4.34;100.00
47815;BME280;33579;50.058;18.130;2023-04-27T03:04:36;99471.72;;;4.35;100.00
47815;BME280;33579;50.058;18.130;2023-04-27T03:05:38;99478.00;;;4.31;100.00
47815;BME280;33579;50.058;18.130;2023-04-27T03:06:40;99472.66;;;4.34;100.00
47815;BME280;33579;50.058;18.130;2023-04-27T03:07:41;99471.63;;;4.37;100.00
47815;BME280;33579;50.058;18.130;2023-04-27T03:08:43;99469.88;;;4.38;100.00
47815;BME280;33579;50.058;18.130;2023-04-27T03:09:45;99476.75;;;4.39;100.00
47815;BME280;33579;50.058;18.130;2023-04-27T03:10:46;99469.59;;;4.42;100.00
47815;BME280;33579;50.058;18.130;2023-04-27T03:11:48;99470.28;;;4.46;100.00
47815;BME280;33579;50.058;18.130;2023-04-27T03:12:49;99474.56;;;4.47;100.00
47815;BME280;33579;50.058;18.130;2023-04-27T03:13:51;99471.69;;;4.52;100.00
47815;BME280;33579;50.058;18.130;2023-04-27T03:14:53;99474.19;;;4.53;100.00
47815;BME280;33579;50.058;18.130;2023-04-27T03:15:54;99474.44;;;4.48;100.00
47815;BME280;33579;50.058;18.130;2023-04-27T03:16:56;99476.97;;;4.50;100.00
47815;BME280;33579;50.058;18.130;2023-04-27T03:17:58;99480.50;;;4.49;100.00
47815;BME280;33579;50.058;18.130;2023-04-27T03:19:00;99479.66;;;4.48;100.00
47815;BME280;33579;50.058;18.130;2023-04-27T03:20:04;99479.59;;;4.50;100.00
47815;BME280;33579;50.058;18.130;2023-04-27T03:21:07;99485.72;;;4.49;100.00
47815;BME280;33579;50.058;18.130;2023-04-27T03:22:09;99485.47;;;4.54;100.00
47815;BME280;33579;50.058;18.130;2023-04-27T03:23:11;99480.41;;;4.50;100.00
47815;BME280;33579;50.058;18.130;2023-04-27T03:24:12;99475.88;;;4.54;100.00
47815;BME280;33579;50.058;18.130;2023-04-27T03:25:14;99489.66;;;4.56;100.00
47815;BME280;33579;50.058;18.130;2023-04-27T03:26:15;99485.47;;;4.54;100.00
47815;BME280;33579;50.058;18.130;2023-04-27T03:27:17;99487.03;;;4.56;100.00
47815;BME280;33579;50.058;18.130;2023-04-27T03:28:19;99492.72;;;4.63;100.00
47815;BME280;33579;50.058;18.130;2023-04-27T03:29:20;99490.91;;;4.65;100.00
47815;BME280;33579;50.058;18.130;2023-04-27T03:30:22;99486.78;;;4.61;100.00
47815;BME280;33579;50.058;18.130;2023-04-27T03:31:24;99486.78;;;4.61;100.00
47815;BME280;33579;50.058;18.130;2023-04-27T03:32:25;99494.34;;;4.66;100.00
47815;BME280;33579;50.058;18.130;2023-04-27T03:33:27;99486.50;;;4.66;100.00
47815;BME280;33579;50.058;18.130;2023-04-27T03:34:29;99495.00;;;4.69;100.00
47815;BME280;33579;50.058;18.130;2023-04-27T03:35:31;99492.31;;;4.71;100.00
47815;BME280;33579;50.058;18.130;2023-04-27T03:36:32;99496.50;;;4.73;100.00
47815;BME280;33579;50.058;18.130;2023-04-27T03:37:35;99496.50;;;4.73;100.00
47815;BME280;33579;50.058;18.130;2023-04-27T03:38:36;99493.81;;;4.75;100.00
47815;BME280;33579;50.058;18.130;2023-04-27T03:39:38;99501.63;;;4.75;100.00
47815;BME280;33579;50.058;18.130;2023-04-27T03:40:41;99494.00;;;4.72;100.00
47815;BME280;33579;50.058;18.130;2023-04-27T03:41:43;99497.28;;;4.75;100.00
47815;BME280;33579;50.058;18.130;2023-04-27T03:42:45;99503.03;;;4.81;100.00
47815;BME280;33579;50.058;18.130;2023-04-27T03:43:47;99504.63;;;4.83;100.00
47815;BME280;33579;50.058;18.130;2023-04-27T03:44:50;99504.53;;;4.85;100.00
47815;BME280;33579;50.058;18.130;2023-04-27T03:45:52;99505.56;;;4.82;100.00
47815;BME280;33579;50.058;18.130;2023-04-27T03:46:54;99502.84;;;4.84;100.00
47815;BME280;33579;50.058;18.130;2023-04-27T03:47:55;99509.94;;;4.82;100.00
47815;BME280;33579;50.058;18.130;2023-04-27T03:48:57;99507.41;;;4.80;100.00
47815;BME280;33579;50.058;18.130;2023-04-27T03:49:59;99506.47;;;4.81;100.00
47815;BME280;33579;50.058;18.130;2023-04-27T03:51:00;99507.41;;;4.80;100.00
47815;BME280;33579;50.058;18.130;2023-04-27T03:52:02;99510.88;;;4.81;100.00
47815;BME280;33579;50.058;18.130;2023-04-27T03:53:04;99509.94;;;4.82;100.00
47815;BME280;33579;50.058;18.130;2023-04-27T03:54:06;99510.88;;;4.81;100.00
47815;BME280;33579;50.058;18.130;2023-04-27T03:55:08;99510.69;;;4.84;100.00
47815;BME280;33579;50.058;18.130;2023-04-27T03:56:10;99512.34;;;4.85;100.00
47815;BME280;33579;50.058;18.130;2023-04-27T03:57:11;99510.59;;;4.85;100.00
47815;BME280;33579;50.058;18.130;2023-04-27T03:58:13;99523.44;;;4.88;100.00
47815;BME280;33579;50.058;18.130;2023-04-27T03:59:34;99518.97;;;4.90;100.00
47815;BME280;33579;50.058;18.130;2023-04-27T04:00:38;99514.50;;;4.92;100.00
47815;BME280;33579;50.058;18.130;2023-04-27T04:01:40;99509.97;;;4.96;100.00
47815;BME280;33579;50.058;18.130;2023-04-27T04:02:41;99516.09;;;4.95;100.00
47815;BME280;33579;50.058;18.130;2023-04-27T04:03:44;99518.72;;;4.95;100.00
47815;BME280;33579;50.058;18.130;2023-04-27T04:04:46;99517.78;;;4.96;100.00
47815;BME280;33579;50.058;18.130;2023-04-27T04:05:47;99522.66;;;5.02;100.00
47815;BME280;33579;50.058;18.130;2023-04-27T04:06:50;99516.41;;;5.05;100.00
47815;BME280;33579;50.058;18.130;2023-04-27T04:07:51;99520.69;;;5.06;100.00
47815;BME280;33579;50.058;18.130;2023-04-27T04:08:53;99517.25;;;5.05;100.00
47815;BME280;33579;50.058;18.130;2023-04-27T04:09:55;99515.47;;;5.06;100.00
47815;BME280;33579;50.058;18.130;2023-04-27T04:10:57;99520.53;;;5.09;100.00
47815;BME280;33579;50.058;18.130;2023-04-27T04:11:58;99516.06;;;5.11;100.00
47815;BME280;33579;50.058;18.130;2023-04-27T04:13:00;99524.81;;;5.10;100.00
47815;BME280;33579;50.058;18.130;2023-04-27T04:14:02;99519.78;;;5.07;100.00
47815;BME280;33579;50.058;18.130;2023-04-27T04:15:04;99516.41;;;5.05;100.00
47815;BME280;33579;50.058;18.130;2023-04-27T04:16:07;99520.78;;;5.04;100.00
47815;BME280;33579;50.058;18.130;2023-04-27T04:17:09;99522.38;;;5.07;100.00
47815;BME280;33579;50.058;18.130;2023-04-27T04:18:14;99520.69;;;5.06;100.00
47815;BME280;33579;50.058;18.130;2023-04-27T04:19:15;99530.22;;;5.07;100.00
47815;BME280;33579;50.058;18.130;2023-04-27T04:20:17;99529.91;;;5.12;100.00
47815;BME280;33579;50.058;18.130;2023-04-27T04:21:19;99522.00;;;5.13;100.00
47815;BME280;33579;50.058;18.130;2023-04-27T04:22:21;99531.31;;;5.17;100.00
47815;BME280;33579;50.058;18.130;2023-04-27T04:23:23;99525.28;;;5.17;100.00
47815;BME280;33579;50.058;18.130;2023-04-27T04:24:26;99530.56;;;5.15;100.00
47815;BME280;33579;50.058;18.130;2023-04-27T04:25:35;99528.63;;;5.19;100.00
47815;BME280;33579;50.058;18.130;2023-04-27T04:26:37;99529.47;;;5.19;100.00
47815;BME280;33579;50.058;18.130;2023-04-27T04:27:41;99532.25;;;5.16;100.00
47815;BME280;33579;50.058;18.130;2023-04-27T04:28:46;99528.16;;;5.12;100.00
47815;BME280;33579;50.058;18.130;2023-04-27T04:30:09;99538.31;;;5.17;100.00
47815;BME280;33579;50.058;18.130;2023-04-27T04:31:14;99531.44;;;5.16;100.00
47815;BME280;33579;50.058;18.130;2023-04-27T04:32:18;99533.78;;;5.20;100.00
47815;BME280;33579;50.058;18.130;2023-04-27T04:33:26;99536.19;;;5.24;100.00
47815;BME280;33579;50.058;18.130;2023-04-27T04:34:29;99537.88;;;5.25;100.00
47815;BME280;33579;50.058;18.130;2023-04-27T04:35:31;99537.78;;;5.26;100.00
47815;BME280;33579;50.058;18.130;2023-04-27T04:36:33;99534.91;;;5.31;100.00
47815;BME280;33579;50.058;18.130;2023-04-27T04:37:34;99539.00;;;5.35;100.00
47815;BME280;33579;50.058;18.130;2023-04-27T04:38:36;99540.59;;;5.38;100.00
47815;BME280;33579;50.058;18.130;2023-04-27T04:39:38;99539.66;;;5.39;100.00
47815;BME280;33579;50.058;18.130;2023-04-27T04:40:41;99542.91;;;5.42;100.00
47815;BME280;33579;50.058;18.130;2023-04-27T04:41:46;99539.66;;;5.39;100.00
47815;BME280;33579;50.058;18.130;2023-04-27T04:42:48;99544.09;;;5.37;100.00
47815;BME280;33579;50.058;18.130;2023-04-27T04:43:49;99541.69;;;5.33;100.00
47815;BME280;33579;50.058;18.130;2023-04-27T04:44:51;99539.81;;;5.35;100.00
47815;BME280;33579;50.058;18.130;2023-04-27T04:45:53;99539.56;;;5.40;100.00
47815;BME280;33579;50.058;18.130;2023-04-27T04:46:54;99543.47;;;5.47;100.00
47815;BME280;33579;50.058;18.130;2023-04-27T04:47:59;99543.28;;;5.51;100.00
47815;BME280;33579;50.058;18.130;2023-04-27T04:49:01;99539.56;;;5.55;100.00
47815;BME280;33579;50.058;18.130;2023-04-27T04:50:03;99547.84;;;5.47;100.00
47815;BME280;33579;50.058;18.130;2023-04-27T04:51:05;99538.25;;;5.47;100.00
47815;BME280;33579;50.058;18.130;2023-04-27T04:52:08;99540.75;;;5.49;100.00
47815;BME280;33579;50.058;18.130;2023-04-27T04:53:09;99547.50;;;5.53;100.00
47815;BME280;33579;50.058;18.130;2023-04-27T04:54:13;99543.88;;;5.56;100.00
47815;BME280;33579;50.058;18.130;2023-04-27T04:55:15;99554.78;;;5.62;100.00
47815;BME280;33579;50.058;18.130;2023-04-27T04:56:16;99552.91;;;5.65;100.00
47815;BME280;33579;50.058;18.130;2023-04-27T04:57:18;99554.47;;;5.67;100.00
47815;BME280;33579;50.058;18.130;2023-04-27T04:58:19;99552.78;;;5.66;100.00
47815;BME280;33579;50.058;18.130;2023-04-27T04:59:21;99551.97;;;5.66;100.00
47815;BME280;33579;50.058;18.130;2023-04-27T05:00:23;99555.13;;;5.71;100.00
47815;BME280;33579;50.058;18.130;2023-04-27T05:01:25;99545.34;;;5.74;100.00
47815;BME280;33579;50.058;18.130;2023-04-27T05:02:26;99554.75;;;5.77;100.00
47815;BME280;33579;50.058;18.130;2023-04-27T05:03:28;99547.69;;;5.79;100.00
47815;BME280;33579;50.058;18.130;2023-04-27T05:04:30;99554.38;;;5.83;100.00
47815;BME280;33579;50.058;18.130;2023-04-27T05:05:31;99553.06;;;5.90;100.00
47815;BME280;33579;50.058;18.130;2023-04-27T05:06:33;99550.19;;;5.95;100.00
47815;BME280;33579;50.058;18.130;2023-04-27T05:07:35;99560.25;;;6.01;100.00
47815;BME280;33579;50.058;18.130;2023-04-27T05:08:36;99558.50;;;6.02;100.00
47815;BME280;33579;50.058;18.130;2023-04-27T05:09:38;99557.38;;;6.06;100.00
47815;BME280;33579;50.058;18.130;2023-04-27T05:10:40;99557.44;;;6.04;100.00
47815;BME280;33579;50.058;18.130;2023-04-27T05:11:41;99560.84;;;6.07;100.00
47815;BME280;33579;50.058;18.130;2023-04-27T05:12:43;99558.03;;;6.10;100.00
47815;BME280;33579;50.058;18.130;2023-04-27T05:13:44;99561.56;;;6.09;100.00
47815;BME280;33579;50.058;18.130;2023-04-27T05:14:46;99561.56;;;6.09;100.00
47815;BME280;33579;50.058;18.130;2023-04-27T05:15:48;99559.78;;;6.09;100.00
47815;BME280;33579;50.058;18.130;2023-04-27T05:16:49;99571.53;;;6.16;100.00
47815;BME280;33579;50.058;18.130;2023-04-27T05:17:51;99568.63;;;6.21;100.00
47815;BME280;33579;50.058;18.130;2023-04-27T05:18:52;99571.78;;;6.26;100.00
47815;BME280;33579;50.058;18.130;2023-04-27T05:19:54;99574.97;;;6.31;100.00
47815;BME280;33579;50.058;18.130;2023-04-27T05:20:56;99572.06;;;6.36;100.00
47815;BME280;33579;50.058;18.130;2023-04-27T05:22:00;99559.63;;;6.40;100.00
47815;BME280;33579;50.058;18.130;2023-04-27T05:23:02;99566.53;;;6.41;100.00
47815;BME280;33579;50.058;18.130;2023-04-27T05:24:03;99565.41;;;6.45;100.00
47815;BME280;33579;50.058;18.130;2023-04-27T05:25:05;99569.50;;;6.49;100.00
47815;BME280;33579;50.058;18.130;2023-04-27T05:26:14;99573.56;;;6.53;100.00
47815;BME280;33579;50.058;18.130;2023-04-27T05:27:16;99573.56;;;6.53;100.00